Time;durP1;ratioP1;P1;durP2;ratioP2;P2;SDS_P1;SDS_P2;PMS_P1;PMS_P2;Temp;Humidity;BMP_temperature;BMP_pressure;BME280_temperature;BME280_humidity;BME280_pressure;Samples;Min_cycle;Max_cycle;Signal;HPM_P1;HPM_P2
2023/05/22 00:02:32;;;;;;;10.70;7.40;;;;;;;11.47;62.63;101022.44;215648;1257;61568;-77
2023/05/22 00:07:26;;;;;;;9.90;7.70;;;;;;;11.41;62.81;101016.09;215710;1257;75666;-77
2023/05/22 00:12:19;;;;;;;10.50;7.80;;;;;;;11.32;62.87;101015.74;215660;1254;73643;-77
2023/05/22 00:17:13;;;;;;;10.30;7.60;;;;;;;11.24;63.03;101011.61;215650;1254;61230;-77
2023/05/22 00:22:07;;;;;;;11.90;7.60;;;;;;;11.15;63.20;101012.81;215556;1254;66378;-77
2023/05/22 00:26:59;;;;;;;9.80;7.70;;;;;;;11.07;63.32;101007.81;215700;1254;61322;-77
2023/05/22 00:31:52;;;;;;;18.70;8.10;;;;;;;11.00;63.38;101008.55;215712;1254;61276;-77
2023/05/22 00:36:46;;;;;;;8.50;7.30;;;;;;;10.94;63.53;101006.34;215703;1257;61255;-77
2023/05/22 00:41:38;;;;;;;10.00;7.50;;;;;;;10.89;63.64;101001.89;215807;1254;61365;-77
2023/05/22 00:46:33;;;;;;;10.30;7.60;;;;;;;10.86;63.63;101002.70;215611;1254;61357;-77
2023/05/22 00:51:26;;;;;;;10.70;7.80;;;;;;;10.78;63.84;101003.05;215630;1254;61363;-77
2023/05/22 00:56:20;;;;;;;12.20;8.60;;;;;;;10.68;64.02;101007.36;215629;1257;74706;-77
2023/05/22 01:01:14;;;;;;;10.60;8.00;;;;;;;10.61;63.93;101006.35;215620;1257;71220;-77
2023/05/22 01:06:08;;;;;;;10.00;6.50;;;;;;;10.54;64.15;101008.10;215590;1254;65233;-77
2023/05/22 01:11:12;;;;;;;8.40;6.20;;;;;;;10.45;64.31;101010.68;215600;1254;65588;-77
2023/05/22 01:16:14;;;;;;;10.40;7.00;;;;;;;10.41;64.47;101009.20;215655;1257;61363;-77
2023/05/22 01:21:22;;;;;;;11.10;8.30;;;;;;;10.33;64.52;101012.13;215570;1254;74698;-77
2023/05/22 01:26:33;;;;;;;9.20;6.70;;;;;;;10.21;64.45;101012.89;215492;1254;70420;-77
2023/05/22 01:31:30;;;;;;;8.50;7.00;;;;;;;10.16;64.94;101009.98;215528;1254;61353;-77
2023/05/22 01:36:27;;;;;;;13.80;6.80;;;;;;;10.13;64.73;101009.73;215541;1257;67063;-77
2023/05/22 01:41:20;;;;;;;7.60;6.60;;;;;;;10.05;64.96;101009.56;215627;1254;61790;-77
2023/05/22 01:46:13;;;;;;;9.90;7.10;;;;;;;10.01;65.00;101010.68;215680;1257;74544;-77
2023/05/22 01:51:23;;;;;;;12.00;7.50;;;;;;;9.93;65.11;101011.18;216102;1254;73831;-77
2023/05/22 01:56:29;;;;;;;9.40;6.90;;;;;;;9.87;65.20;101013.80;215557;1254;61241;-77
2023/05/22 02:01:29;;;;;;;10.10;7.50;;;;;;;9.85;65.24;101016.17;215504;1254;67379;-77
2023/05/22 02:06:23;;;;;;;8.90;6.40;;;;;;;9.78;65.28;101022.58;215731;1254;61262;-77
2023/05/22 02:11:17;;;;;;;8.70;6.20;;;;;;;9.69;65.34;101020.98;215556;1254;75099;-76
2023/05/22 02:16:11;;;;;;;7.70;6.20;;;;;;;9.61;65.59;101012.64;215616;1255;72699;-77
2023/05/22 02:21:07;;;;;;;7.40;6.10;;;;;;;9.56;65.66;101015.97;215536;1254;61429;-77
2023/05/22 02:26:03;;;;;;;9.00;6.50;;;;;;;9.51;65.54;101015.51;215601;1254;66417;-76
2023/05/22 02:30:56;;;;;;;9.60;6.60;;;;;;;9.46;65.95;101010.52;215894;1255;61291;-77
2023/05/22 02:35:49;;;;;;;10.60;7.00;;;;;;;9.41;65.96;101014.37;215665;1254;74384;-77
2023/05/22 02:40:42;;;;;;;7.30;6.30;;;;;;;9.36;65.91;101010.95;215551;1255;61511;-77
2023/05/22 02:45:35;;;;;;;8.50;6.10;;;;;;;9.33;66.04;101008.79;215602;1254;61235;-77
2023/05/22 02:50:28;;;;;;;8.50;6.80;;;;;;;9.35;66.18;101008.52;215177;1254;447508;-77
2023/05/22 02:55:21;;;;;;;8.90;6.50;;;;;;;9.34;66.18;101006.91;215592;1254;61262;-77
2023/05/22 03:00:15;;;;;;;8.90;7.10;;;;;;;9.30;66.32;101003.52;215502;1254;73460;-77
2023/05/22 03:05:09;;;;;;;8.60;6.30;;;;;;;9.27;66.36;100996.17;215536;1254;71375;-77
2023/05/22 03:10:02;;;;;;;9.20;6.40;;;;;;;9.26;66.44;100994.93;215590;1253;61349;-77
2023/05/22 03:14:55;;;;;;;6.40;5.60;;;;;;;9.27;66.45;100990.30;215567;1254;61267;-77
2023/05/22 03:19:48;;;;;;;7.40;6.20;;;;;;;9.28;66.56;100987.72;215516;1254;61356;-76
2023/05/22 03:24:41;;;;;;;7.90;5.80;;;;;;;9.27;66.42;100986.33;215486;1254;75553;-77
2023/05/22 03:29:36;;;;;;;8.90;6.10;;;;;;;9.30;66.72;100983.45;215509;1255;73260;-76
2023/05/22 03:34:31;;;;;;;9.40;6.40;;;;;;;9.36;66.88;100983.09;215428;1257;61376;-77
2023/05/22 03:39:24;;;;;;;9.20;6.20;;;;;;;9.54;66.82;100985.30;215644;1254;65558;-77
2023/05/22 03:44:26;;;;;;;7.80;6.20;;;;;;;9.76;66.78;100988.27;215550;1254;61336;-77
2023/05/22 03:49:20;;;;;;;7.70;6.60;;;;;;;9.90;66.65;100988.59;215568;1254;75478;-77
2023/05/22 03:54:13;;;;;;;8.20;6.00;;;;;;;9.98;66.69;100988.60;215546;1254;61324;-77
2023/05/22 03:59:06;;;;;;;7.30;6.10;;;;;;;10.02;66.82;100990.60;215586;1255;61228;-77
2023/05/22 04:03:59;;;;;;;6.60;5.70;;;;;;;10.07;67.09;100988.66;215584;1254;61272;-77
2023/05/22 04:08:52;;;;;;;9.00;6.40;;;;;;;10.14;67.44;100992.98;215458;1254;61268;-77
2023/05/22 04:13:45;;;;;;;7.70;6.80;;;;;;;10.26;67.37;100993.25;215535;1254;61238;-77
2023/05/22 04:18:38;;;;;;;6.60;6.00;;;;;;;10.35;67.75;100992.63;215532;1254;61274;-77
2023/05/22 04:23:31;;;;;;;8.60;5.70;;;;;;;10.47;67.91;100987.67;215645;1254;62797;-76
2023/05/22 04:28:25;;;;;;;7.90;6.40;;;;;;;10.58;68.00;100980.81;215728;1254;66852;-77
2023/05/22 04:33:18;;;;;;;7.70;5.90;;;;;;;10.69;68.20;100979.13;215695;1254;61386;-77
2023/05/22 04:38:11;;;;;;;5.80;5.20;;;;;;;10.81;68.28;100973.13;215686;1253;61298;-77
2023/05/22 04:43:05;;;;;;;11.30;5.60;;;;;;;10.96;68.24;100963.52;215807;1254;73497;-77
2023/05/22 04:48:01;;;;;;;7.40;5.50;;;;;;;11.11;68.39;100965.38;215761;1254;61423;-78
2023/05/22 04:53:02;;;;;;;7.20;5.10;;;;;;;11.25;68.28;100960.62;215779;1254;66800;-76
2023/05/22 04:57:56;;;;;;;10.70;5.50;;;;;;;11.42;68.25;100960.38;215808;1254;61077;-75
2023/05/22 05:02:49;;;;;;;6.20;4.30;;;;;;;11.59;68.40;100959.29;215695;1257;61246;-76
2023/05/22 05:07:43;;;;;;;8.70;4.30;;;;;;;11.76;68.01;100960.08;215738;1254;72504;-76
2023/05/22 05:12:36;;;;;;;8.00;4.50;;;;;;;11.97;67.58;100961.83;215747;1254;61329;-77
2023/05/22 05:17:30;;;;;;;11.40;4.80;;;;;;;12.26;67.36;100960.52;215527;1254;66878;-76
2023/05/22 05:22:23;;;;;;;5.00;4.10;;;;;;;12.52;67.18;100963.47;215590;1254;61238;-75
2023/05/22 05:27:16;;;;;;;5.20;3.80;;;;;;;12.79;67.04;100965.36;215533;1253;74076;-76
2023/05/22 05:32:11;;;;;;;6.80;4.00;;;;;;;13.09;66.56;100966.92;215576;1257;72606;-76
2023/05/22 05:37:16;;;;;;;8.20;4.10;;;;;;;13.46;66.30;100965.91;215938;1254;61286;-76
2023/05/22 05:42:10;;;;;;;5.60;4.70;;;;;;;13.78;65.23;100961.66;215699;1254;65996;-76
2023/05/22 05:47:04;;;;;;;6.20;4.40;;;;;;;14.17;64.67;100965.23;215749;1254;61455;-76
2023/05/22 05:51:57;;;;;;;6.90;4.20;;;;;;;14.49;64.02;100962.63;215820;1254;74525;-76
2023/05/22 05:56:51;;;;;;;4.40;4.00;;;;;;;14.82;62.99;100955.45;215695;1254;71782;-76
2023/05/22 06:01:46;;;;;;;3.80;3.50;;;;;;;15.15;62.10;100960.79;215672;1254;61366;-77
2023/05/22 06:06:44;;;;;;;4.00;3.30;;;;;;;15.59;60.78;100963.45;215790;1254;66703;-76
2023/05/22 06:11:40;;;;;;;3.90;3.50;;;;;;;16.26;59.21;100956.23;215896;1254;61267;-77
2023/05/22 06:16:33;;;;;;;4.00;3.40;;;;;;;17.19;57.61;100952.88;215794;1257;74061;-76
2023/05/22 06:21:26;;;;;;;5.40;3.90;;;;;;;17.72;56.54;100948.63;215687;1256;72931;-77
2023/05/22 06:26:20;;;;;;;5.00;3.50;;;;;;;18.61;54.68;100942.77;215482;1254;61271;-77
2023/05/22 06:31:14;;;;;;;3.80;3.40;;;;;;;20.13;52.78;100935.86;215830;1254;65778;-77
2023/05/22 06:36:10;;;;;;;4.10;3.70;;;;;;;20.34;52.76;100933.00;215728;1254;61382;-78
2023/05/22 06:41:04;;;;;;;4.80;3.40;;;;;;;20.37;52.53;100930.48;215682;1254;74845;-77
2023/05/22 06:45:57;;;;;;;3.40;3.10;;;;;;;20.57;51.84;100929.91;215774;1254;72631;-77
2023/05/22 06:51:00;;;;;;;5.40;3.70;;;;;;;20.35;51.26;100935.09;215746;1255;61306;-77
2023/05/22 06:55:53;;;;;;;5.30;3.20;;;;;;;20.49;49.97;100925.84;215631;1254;65971;-77
2023/05/22 07:00:57;;;;;;;6.50;3.00;;;;;;;21.29;48.09;100927.58;215661;1254;63907;-77
2023/05/22 07:05:59;;;;;;;6.20;3.40;;;;;;;21.44;47.73;100927.44;215782;1254;75902;-77
2023/05/22 07:10:52;;;;;;;4.60;3.00;;;;;;;21.57;47.15;100925.85;215725;1254;72672;-77
2023/05/22 07:15:46;;;;;;;4.40;2.30;;;;;;;22.15;45.87;100920.45;215686;1253;61467;-77
2023/05/22 07:20:43;;;;;;;;;;;;;;;23.25;44.28;100915.77;215519;1257;66441;-77
2023/05/22 07:25:42;;;;;;;3.50;3.00;;;;;;;24.57;40.98;100915.65;215754;1254;61678;-77
2023/05/22 07:30:38;;;;;;;3.70;2.50;;;;;;;24.92;40.94;100911.96;215956;1255;75211;-76
2023/05/22 07:35:31;;;;;;;6.40;2.70;;;;;;;24.82;40.41;100906.86;215706;1254;71047;-76
2023/05/22 07:40:24;;;;;;;6.00;2.50;;;;;;;25.38;39.93;100903.34;215774;1256;61321;-76
2023/05/22 07:45:18;;;;;;;3.90;3.00;;;;;;;27.75;37.11;100897.73;215762;1254;66243;-76
2023/05/22 07:50:12;;;;;;;5.80;2.80;;;;;;;27.24;36.50;100898.35;215678;1254;66522;-78
2023/05/22 07:55:08;;;;;;;4.60;2.70;;;;;;;28.04;34.83;100890.66;215828;1254;73633;-79
2023/05/22 08:00:12;;;;;;;6.10;2.60;;;;;;;28.62;33.26;100888.30;216049;1254;73618;-77
2023/05/22 08:05:13;;;;;;;2.80;2.50;;;;;;;27.73;33.30;100891.09;215819;1254;61289;-77
2023/05/22 08:10:24;;;;;;;3.90;3.00;;;;;;;28.00;33.29;100886.12;215637;1254;61408;-77
2023/05/22 08:15:21;;;;;;;3.00;2.50;;;;;;;29.43;31.31;100886.34;216087;1254;61437;-77
2023/05/22 08:20:14;;;;;;;2.30;2.10;;;;;;;31.10;29.99;100877.57;215945;1254;61268;-77
2023/05/22 08:25:09;;;;;;;3.00;2.30;;;;;;;33.42;28.02;100877.04;216006;1255;61248;-78
2023/05/22 08:30:04;;;;;;;2.00;1.80;;;;;;;31.98;28.66;100874.24;215909;1253;61219;-77
2023/05/22 08:34:58;;;;;;;2.20;2.00;;;;;;;29.66;29.27;100876.05;215858;1256;65992;-77
2023/05/22 08:39:51;;;;;;;3.10;2.20;;;;;;;28.70;29.57;100878.42;215925;1256;61375;-78
2023/05/22 08:44:44;;;;;;;5.80;2.50;;;;;;;27.96;30.61;100876.30;215980;1255;74652;-78
2023/05/22 08:49:39;;;;;;;2.70;2.50;;;;;;;26.89;31.88;100882.27;215947;1257;73714;-77
2023/05/22 08:54:36;;;;;;;3.80;2.30;;;;;;;26.58;31.54;100875.54;215864;1257;61236;-77
2023/05/22 08:59:30;;;;;;;2.50;2.10;;;;;;;25.90;31.74;100876.52;215890;1254;65964;-78
2023/05/22 09:04:24;;;;;;;3.50;2.30;;;;;;;26.18;31.91;100864.77;215778;1254;61890;-77
2023/05/22 09:09:17;;;;;;;5.60;2.30;;;;;;;25.94;32.07;100869.08;215964;1255;73988;-77
2023/05/22 09:14:10;;;;;;;2.20;2.10;;;;;;;26.85;31.02;100858.03;215979;1254;72663;-78
2023/05/22 09:19:05;;;;;;;3.30;2.30;;;;;;;26.94;30.28;100858.91;215772;1254;61360;-77
2023/05/22 09:24:01;;;;;;;4.80;2.60;;;;;;;26.25;30.24;100860.71;215846;1253;66710;-76
2023/05/22 09:28:55;;;;;;;3.80;3.10;;;;;;;25.73;30.45;100857.39;215996;1254;61322;-78
2023/05/22 09:33:48;;;;;;;2.00;1.70;;;;;;;25.03;31.28;100859.94;216029;1256;74987;-77
2023/05/22 09:38:41;;;;;;;4.40;2.20;;;;;;;24.49;31.76;100852.31;215981;1257;61260;-78
2023/05/22 09:43:34;;;;;;;3.00;2.30;;;;;;;24.34;31.86;100850.77;216007;1256;61256;-78
2023/05/22 09:48:27;;;;;;;3.90;2.40;;;;;;;26.01;30.42;100843.45;215991;1255;61344;-77
2023/05/22 09:53:28;;;;;;;4.30;2.80;;;;;;;26.52;30.22;100842.42;215948;1256;61383;-77
2023/05/22 09:58:25;;;;;;;3.40;2.00;;;;;;;26.92;30.00;100843.52;215997;1254;74573;-79
2023/05/22 10:03:23;;;;;;;13.70;4.10;;;;;;;27.78;29.48;100841.31;216050;1255;72836;-76
2023/05/22 10:08:28;;;;;;;3.00;2.40;;;;;;;27.54;29.30;100836.70;215960;1254;61252;-76
2023/05/22 10:13:22;;;;;;;3.50;2.10;;;;;;;27.37;29.28;100834.00;216024;1255;68032;-76
2023/05/22 10:18:18;;;;;;;2.30;2.00;;;;;;;26.84;29.36;100832.73;215974;1257;61222;-76
2023/05/22 10:23:12;;;;;;;2.60;2.40;;;;;;;26.05;29.73;100828.43;215609;1256;74451;-80
2023/05/22 10:28:06;;;;;;;2.30;2.10;;;;;;;25.49;29.77;100827.52;215867;1257;73720;-76
2023/05/22 10:33:10;;;;;;;3.40;2.20;;;;;;;25.16;29.78;100827.29;215908;1255;61351;-78
2023/05/22 10:38:25;;;;;;;2.50;2.30;;;;;;;25.05;30.51;100829.89;215916;1255;66994;-76
2023/05/22 10:43:21;;;;;;;2.60;2.40;;;;;;;25.03;30.55;100824.65;215906;1256;61283;-77
2023/05/22 10:48:14;;;;;;;2.50;2.30;;;;;;;24.91;30.74;100825.85;215959;1257;74910;-77
2023/05/22 10:53:27;;;;;;;5.40;2.40;;;;;;;24.53;31.05;100821.71;215940;1255;72401;-78
2023/05/22 10:58:27;;;;;;;4.00;2.20;;;;;;;24.10;31.68;100824.92;215939;1256;61353;-76
2023/05/22 11:03:21;;;;;;;2.60;2.10;;;;;;;23.70;32.17;100821.08;215930;1254;65316;-78
2023/05/22 11:08:26;;;;;;;5.80;2.50;;;;;;;23.61;32.48;100821.02;215956;1255;61285;-77
2023/05/22 11:13:19;;;;;;;2.40;2.00;;;;;;;23.90;32.96;100811.13;215842;1256;74987;-79
2023/05/22 11:18:13;;;;;;;4.10;3.00;;;;;;;24.21;32.67;100806.80;215911;1254;61245;-78
2023/05/22 11:23:07;;;;;;;2.60;2.40;;;;;;;24.66;32.24;100802.04;215977;1255;61712;-76
2023/05/22 11:28:04;;;;;;;3.20;2.40;;;;;;;25.30;32.61;100797.45;216011;1255;66955;-78
2023/05/22 11:33:00;;;;;;;;;;;;;;;25.87;31.64;100788.95;215960;1255;61296;-77
2023/05/22 11:37:54;;;;;;;3.10;1.90;;;;;;;26.26;30.39;100789.96;216078;1257;73535;-77
2023/05/22 11:42:48;;;;;;;3.00;2.40;;;;;;;26.59;30.38;100780.23;216047;1257;71394;-78
2023/05/22 11:47:41;;;;;;;3.70;2.60;;;;;;;26.88;30.14;100778.48;215883;1258;61729;-77
2023/05/22 11:52:36;;;;;;;3.10;2.30;;;;;;;26.91;29.43;100769.61;215986;1255;66829;-76
2023/05/22 11:57:30;;;;;;;4.30;2.20;;;;;;;26.99;29.87;100764.24;215995;1257;61356;-78
2023/05/22 12:02:23;;;;;;;4.10;2.00;;;;;;;27.19;29.77;100766.92;216127;1255;72751;-78
2023/05/22 12:07:16;;;;;;;2.50;2.20;;;;;;;26.99;29.34;100767.77;216011;1257;72668;-78
2023/05/22 12:12:10;;;;;;;4.50;2.10;;;;;;;26.47;29.63;100766.77;215811;1254;61845;-78
2023/05/22 12:17:05;;;;;;;2.60;2.00;;;;;;;26.42;29.49;100767.55;215942;1254;67968;-77
2023/05/22 12:21:59;;;;;;;3.50;1.90;;;;;;;26.12;28.98;100757.23;215924;1257;61352;-78
2023/05/22 12:26:53;;;;;;;4.40;2.50;;;;;;;26.15;29.73;100758.73;215875;1255;75413;-78
2023/05/22 12:31:46;;;;;;;2.10;2.00;;;;;;;26.39;29.42;100751.89;215797;1257;71425;-78
2023/05/22 12:36:41;;;;;;;5.90;2.50;;;;;;;26.12;29.70;100743.75;215778;1255;61281;-78
2023/05/22 12:41:34;;;;;;;4.40;2.20;;;;;;;26.44;30.07;100739.70;215791;1254;66246;-77
2023/05/22 12:46:27;;;;;;;5.50;2.90;;;;;;;26.77;29.87;100735.45;215802;1254;61285;-79
2023/05/22 12:51:20;;;;;;;3.90;2.20;;;;;;;26.83;29.66;100735.89;215793;1254;75024;-79
2023/05/22 12:56:13;;;;;;;3.70;2.20;;;;;;;26.58;29.45;100732.12;215934;1256;61375;-78
2023/05/22 13:01:06;;;;;;;2.30;1.90;;;;;;;26.68;29.96;100731.66;215773;1256;61388;-76
2023/05/22 13:05:59;;;;;;;4.60;2.50;;;;;;;26.79;29.50;100724.69;215801;1257;61358;-77
2023/05/22 13:10:51;;;;;;;5.30;3.10;;;;;;;26.91;29.20;100718.58;216049;1254;61405;-77
2023/05/22 13:15:45;;;;;;;3.40;2.30;;;;;;;26.96;29.00;100721.31;215920;1255;61230;-78
2023/05/22 13:20:38;;;;;;;2.50;1.90;;;;;;;26.96;28.73;100722.73;216040;1254;71180;-78
2023/05/22 13:25:31;;;;;;;3.40;2.50;;;;;;;27.06;28.44;100719.95;215973;1256;61921;-77
2023/05/22 13:30:24;;;;;;;4.70;2.60;;;;;;;27.06;28.30;100712.27;215956;1254;61216;-77
2023/05/22 13:35:18;;;;;;;5.60;2.50;;;;;;;27.00;28.51;100707.79;215840;1256;61203;-77
2023/05/22 13:40:11;;;;;;;3.50;2.30;;;;;;;27.08;28.31;100708.64;215957;1255;75698;-76
2023/05/22 13:45:05;;;;;;;2.60;2.20;;;;;;;27.01;28.59;100708.98;215520;1257;71819;-78
2023/05/22 13:49:58;;;;;;;9.50;2.80;;;;;;;26.84;28.38;100709.10;216046;1254;61412;-78
2023/05/22 13:54:51;;;;;;;1.80;1.70;;;;;;;26.25;28.88;100705.80;215940;1254;60022;-78
2023/05/22 13:59:44;;;;;;;2.90;2.30;;;;;;;26.33;28.88;100700.27;215829;1256;61256;-79
2023/05/22 14:04:37;;;;;;;2.30;2.10;;;;;;;26.46;28.26;100696.79;215762;1257;61749;-78
2023/05/22 14:09:39;;;;;;;3.40;2.20;;;;;;;26.25;28.08;100689.31;215586;1256;71767;-78
2023/05/22 14:14:35;;;;;;;4.50;2.40;;;;;;;26.07;28.83;100686.78;215784;1256;61348;-77
2023/05/22 14:19:28;;;;;;;3.70;2.20;;;;;;;26.31;28.84;100684.21;215839;1256;68353;-76
2023/05/22 14:24:21;;;;;;;2.30;2.10;;;;;;;26.25;28.16;100685.58;215800;1256;61259;-78
2023/05/22 14:29:23;;;;;;;6.90;2.50;;;;;;;25.99;28.23;100681.84;215775;1258;74723;-78
2023/05/22 14:34:22;;;;;;;3.60;2.20;;;;;;;25.72;28.77;100676.89;215767;1254;73144;-79
2023/05/22 14:39:15;;;;;;;4.40;2.40;;;;;;;25.73;28.61;100669.74;215826;1255;60841;-78
2023/05/22 14:44:09;;;;;;;4.20;2.10;;;;;;;25.74;28.42;100666.81;215848;1256;66948;-78
2023/05/22 14:49:02;;;;;;;2.80;2.20;;;;;;;25.52;28.51;100663.59;215710;1257;148370;-79
2023/05/22 14:53:55;;;;;;;2.30;2.10;;;;;;;25.28;28.98;100662.92;215612;1258;75809;-79
2023/05/22 14:58:48;;;;;;;4.50;3.00;;;;;;;25.43;29.09;100664.35;215763;1257;72272;-79
2023/05/22 15:03:42;;;;;;;2.90;2.20;;;;;;;25.65;29.05;100661.96;215745;1254;61319;-78
2023/05/22 15:14:11;;;;;;;3.00;2.40;;;;;;;25.66;28.68;100655.86;214987;1261;61453;-78
2023/05/22 15:19:05;;;;;;;2.70;2.20;;;;;;;25.64;28.73;100653.09;214774;1263;75427;-79
2023/05/22 15:23:58;;;;;;;4.20;2.30;;;;;;;25.58;28.53;100654.11;215072;1259;73580;-79
2023/05/22 15:28:59;;;;;;;2.50;2.30;;;;;;;25.52;28.58;100645.67;215112;1260;61367;-79
2023/05/22 15:34:30;;;;;;;2.50;2.10;;;;;;;25.42;28.70;100642.96;215096;1263;67356;-79
2023/05/22 15:40:38;;;;;;;5.20;2.30;;;;;;;25.30;28.88;100640.65;215105;1260;61265;-79
2023/05/22 15:58:12;;;;;;;;;;;;;;;;;;;;;
2023/05/22 16:03:57;;;;;;;3.60;2.20;;;;;;;24.63;30.01;100623.02;215843;1254;66144;-79
2023/05/22 16:09:49;;;;;;;;;;;;;;;;;;;;;
2023/05/22 16:15:23;;;;;;;5.30;2.30;;;;;;;24.44;30.27;100615.84;215950;1254;76095;-78
2023/05/22 16:21:15;;;;;;;3.70;2.80;;;;;;;24.33;31.37;100610.61;215978;1254;73769;-78
2023/05/22 16:38:56;;;;;;;4.50;2.40;;;;;;;23.90;31.14;100605.66;215393;1263;61256;-78
2023/05/22 16:44:39;;;;;;;4.50;2.70;;;;;;;23.77;32.12;100605.43;215322;1257;74124;-78
2023/05/22 17:07:47;;;;;;;5.30;2.90;;;;;;;23.09;32.68;100603.95;212653;1274;61364;-79
2023/05/22 17:13:22;;;;;;;6.60;2.20;;;;;;;22.93;33.97;100608.39;214574;1274;75981;-78
2023/05/22 17:18:55;;;;;;;2.30;2.10;;;;;;;22.74;34.12;100609.59;213282;1271;71960;-78
2023/05/22 17:24:05;;;;;;;7.10;2.40;;;;;;;22.52;34.45;100614.95;213658;1261;61811;-78
2023/05/22 17:36:26;;;;;;;7.90;3.00;;;;;;;21.87;37.04;100622.52;215134;1254;61289;-78
2023/05/22 17:47:31;;;;;;;6.90;3.30;;;;;;;21.13;38.44;100625.20;214926;1257;73370;-77
2023/05/22 17:52:24;;;;;;;13.10;2.80;;;;;;;20.81;38.92;100621.14;214974;1257;61229;-78
2023/05/22 17:57:17;;;;;;;4.30;2.20;;;;;;;20.52;39.65;100617.32;215047;1257;67489;-77
2023/05/22 18:02:10;;;;;;;4.70;2.70;;;;;;;20.22;40.42;100612.93;215219;1258;61399;-78
2023/05/22 18:07:03;;;;;;;5.00;2.80;;;;;;;19.94;41.09;100610.27;215238;1257;74546;-78
2023/05/22 18:12:00;;;;;;;3.00;2.30;;;;;;;19.64;41.70;100610.58;215180;1258;73414;-78
2023/05/22 18:16:53;;;;;;;;;;;;;;;19.34;42.36;100609.45;215710;1253;61318;-77
2023/05/22 18:21:46;;;;;;;3.20;2.50;;;;;;;19.03;43.07;100609.90;216085;1253;61265;-77
2023/05/22 18:26:39;;;;;;;3.00;2.10;;;;;;;18.77;43.40;100605.13;216066;1253;61521;-78
2023/05/22 18:31:33;;;;;;;3.30;2.60;;;;;;;18.51;43.85;100607.16;215939;1254;75168;-78
2023/05/22 18:36:26;;;;;;;4.80;2.80;;;;;;;18.24;44.61;100612.16;215784;1254;73225;-78
2023/05/22 18:41:19;;;;;;;5.80;3.30;;;;;;;17.96;44.97;100613.30;216011;1254;61286;-77
2023/05/22 18:46:12;;;;;;;8.40;3.10;;;;;;;17.72;45.56;100615.20;215651;1254;61282;-77
2023/05/22 18:51:05;;;;;;;12.00;3.80;;;;;;;17.50;46.31;100616.04;215846;1254;61359;-78
2023/05/22 18:55:58;;;;;;;21.60;4.50;;;;;;;17.26;46.77;100621.40;215838;1253;61333;-77
2023/05/22 19:00:54;;;;;;;17.40;5.00;;;;;;;17.06;47.55;100624.61;215700;1253;61225;-77
2023/05/22 19:05:47;;;;;;;9.10;3.70;;;;;;;16.86;48.22;100625.88;215680;1254;61350;-77
2023/05/22 19:10:41;;;;;;;13.40;4.40;;;;;;;16.72;48.86;100628.61;215704;1253;67016;-77
2023/05/22 19:15:36;;;;;;;9.00;4.50;;;;;;;16.57;49.35;100628.05;215884;1252;61348;-77
2023/05/22 19:20:29;;;;;;;9.20;4.40;;;;;;;16.41;49.93;100629.77;215970;1254;74624;-77
2023/05/22 19:25:22;;;;;;;10.00;3.80;;;;;;;16.20;50.17;100634.48;215889;1253;71043;-77
2023/05/22 19:30:15;;;;;;;10.10;3.50;;;;;;;16.04;50.79;100640.88;215903;1253;61343;-76
2023/05/22 19:35:09;;;;;;;9.70;4.10;;;;;;;15.90;51.01;100639.06;216038;1253;67166;-76
2023/05/22 19:40:03;;;;;;;14.40;5.60;;;;;;;15.76;51.42;100629.17;215970;1256;60052;-76
2023/05/22 19:44:56;;;;;;;12.70;4.60;;;;;;;15.62;51.79;100633.42;216005;1253;74579;-76
2023/05/22 19:49:49;;;;;;;6.30;4.00;;;;;;;15.48;51.99;100634.19;215907;1253;71870;-77
2023/05/22 19:54:47;;;;;;;14.30;5.80;;;;;;;15.29;52.15;100632.85;216007;1253;61316;-76
2023/05/22 19:59:41;;;;;;;8.90;5.30;;;;;;;15.10;52.76;100632.58;215911;1251;68196;-77
2023/05/22 20:04:34;;;;;;;11.80;6.60;;;;;;;14.99;53.13;100633.48;215897;1253;61239;-76
2023/05/22 20:09:27;;;;;;;13.40;7.90;;;;;;;14.90;53.52;100627.92;215859;1253;61285;-77
2023/05/22 20:14:20;;;;;;;10.70;7.90;;;;;;;14.80;53.92;100634.05;215871;1253;61844;-77
2023/05/22 20:19:14;;;;;;;11.40;10.10;;;;;;;14.68;54.16;100630.22;215948;1254;61409;-76
2023/05/22 20:24:11;;;;;;;10.20;8.90;;;;;;;14.50;54.34;100625.48;215975;1252;68076;-76
2023/05/22 20:29:04;;;;;;;12.10;10.50;;;;;;;14.36;54.71;100620.27;215886;1253;60479;-77
2023/05/22 20:33:57;;;;;;;11.20;9.00;;;;;;;14.16;55.23;100627.23;215732;1255;75571;-77
2023/05/22 20:38:50;;;;;;;10.80;7.70;;;;;;;14.09;55.69;100627.23;215957;1253;72036;-76
2023/05/22 20:43:45;;;;;;;8.90;6.30;;;;;;;14.00;56.27;100623.38;215963;1253;61320;-77
2023/05/22 20:48:39;;;;;;;11.40;7.20;;;;;;;13.89;56.40;100624.60;215812;1252;66771;-77
2023/05/22 20:53:32;;;;;;;11.70;7.80;;;;;;;13.69;56.43;100621.23;215863;1254;61376;-77
2023/05/22 20:58:26;;;;;;;18.90;10.00;;;;;;;13.53;56.82;100622.05;215727;1257;61274;-77
2023/05/22 21:03:19;;;;;;;14.10;11.90;;;;;;;13.36;57.10;100618.52;216072;1254;72757;-77
2023/05/22 21:08:12;;;;;;;14.50;13.00;;;;;;;13.25;57.87;100623.65;216030;1253;61337;-77
2023/05/22 21:13:05;;;;;;;19.60;13.60;;;;;;;13.15;58.13;100621.52;215924;1253;61327;-77
2023/05/22 21:17:58;;;;;;;15.30;12.30;;;;;;;13.07;58.36;100619.39;216029;1252;61358;-77
2023/05/22 21:22:51;;;;;;;13.10;11.00;;;;;;;12.95;58.61;100615.50;215898;1253;74543;-77
2023/05/22 21:27:45;;;;;;;16.60;11.70;;;;;;;12.89;58.94;100608.15;215942;1253;61251;-77
2023/05/22 21:32:39;;;;;;;12.00;9.90;;;;;;;12.80;59.07;100609.48;215848;1252;61902;-77
2023/05/22 21:37:32;;;;;;;13.10;10.30;;;;;;;12.69;59.43;100605.25;215854;1253;65811;-77
2023/05/22 21:42:25;;;;;;;12.60;11.10;;;;;;;12.65;59.59;100604.35;215887;1253;61295;-77
2023/05/22 21:47:36;;;;;;;14.80;11.80;;;;;;;12.62;59.63;100603.99;215920;1252;74403;-77
2023/05/22 21:52:29;;;;;;;16.90;11.70;;;;;;;12.54;59.64;100606.20;215883;1253;61391;-77
2023/05/22 21:57:24;;;;;;;12.50;10.90;;;;;;;12.47;59.86;100605.97;216051;1252;61240;-77
2023/05/22 22:02:18;;;;;;;15.90;12.30;;;;;;;12.39;59.84;100606.94;215880;1253;65980;-77
2023/05/22 22:07:11;;;;;;;14.00;12.20;;;;;;;12.32;60.11;100609.16;215983;1252;60483;-77
2023/05/22 22:12:04;;;;;;;17.00;13.60;;;;;;;12.24;60.34;100608.39;215915;1252;73673;-78
2023/05/22 22:16:59;;;;;;;15.10;13.20;;;;;;;12.16;60.36;100604.16;215983;1253;73011;-77
2023/05/22 22:21:52;;;;;;;18.80;14.50;;;;;;;12.09;60.65;100602.01;215998;1252;61373;-76
2023/05/22 22:26:46;;;;;;;15.80;14.20;;;;;;;12.03;60.83;100597.44;215849;1253;66271;-76
2023/05/22 22:31:39;;;;;;;19.60;15.20;;;;;;;11.92;60.79;100603.77;215929;1253;61327;-76
2023/05/22 22:36:34;;;;;;;16.10;14.30;;;;;;;11.85;61.15;100602.27;215734;1254;73782;-76
2023/05/22 22:41:27;;;;;;;13.40;12.00;;;;;;;11.80;61.49;100594.95;215817;1257;74064;-75
2023/05/22 22:46:20;;;;;;;12.50;8.80;;;;;;;11.73;61.53;100594.35;215921;1253;61422;-76
2023/05/22 22:51:15;;;;;;;9.50;8.60;;;;;;;11.65;61.56;100593.39;215701;1251;65930;-77
2023/05/22 22:56:08;;;;;;;10.10;7.50;;;;;;;11.53;61.61;100600.20;215941;1252;61238;-76
2023/05/22 23:01:01;;;;;;;9.30;6.80;;;;;;;11.45;62.03;100600.98;215871;1252;61775;-76
2023/05/22 23:05:54;;;;;;;7.60;6.10;;;;;;;11.37;62.10;100597.77;215975;1253;61349;-76
2023/05/22 23:10:47;;;;;;;7.80;6.10;;;;;;;11.26;62.15;100588.42;215952;1253;61349;-76
2023/05/22 23:15:40;;;;;;;8.80;6.30;;;;;;;11.14;62.50;100584.13;216039;1252;61414;-76
2023/05/22 23:20:33;;;;;;;10.10;7.50;;;;;;;11.07;62.82;100578.50;216112;1252;61411;-76
2023/05/22 23:25:26;;;;;;;8.20;5.90;;;;;;;11.04;63.01;100569.95;216070;1253;61273;-76
2023/05/22 23:30:19;;;;;;;6.80;6.10;;;;;;;10.95;63.03;100566.88;216034;1252;61353;-75
2023/05/22 23:35:13;;;;;;;10.80;7.00;;;;;;;10.84;63.17;100561.55;215871;1253;61260;-76
2023/05/22 23:40:07;;;;;;;8.70;5.80;;;;;;;10.78;63.39;100559.20;215965;1253;61244;-76
2023/05/22 23:45:00;;;;;;;8.70;7.20;;;;;;;10.73;63.67;100560.01;215991;1253;61395;-76
2023/05/22 23:49:55;;;;;;;7.40;6.60;;;;;;;10.68;63.99;100556.30;216004;1257;61213;-76